createdAt,value
2023-05-03T00:01:10.499Z,16.70
2023-05-03T00:03:58.809Z,18.90
2023-05-03T00:06:47.961Z,17.70
2023-05-03T00:09:38.356Z,18.00
2023-05-03T00:12:25.931Z,19.00
2023-05-03T00:15:14.014Z,17.20
2023-05-03T00:18:54.930Z,19.70
2023-05-03T01:13:30.679Z,14.50
2023-05-03T01:16:31.183Z,17.60
2023-05-03T01:19:24.672Z,17.50
2023-05-03T01:22:26.473Z,18.20
2023-05-03T01:25:13.941Z,17.40
2023-05-03T01:28:01.557Z,17.60
2023-05-03T01:30:49.576Z,17.60
2023-05-03T01:33:44.610Z,17.30
2023-05-03T01:36:35.184Z,16.90
2023-05-03T01:39:23.458Z,17.50
2023-05-03T01:42:10.938Z,17.60
2023-05-03T01:44:58.862Z,16.70
2023-05-03T01:47:47.487Z,18.80
2023-05-03T01:50:34.248Z,16.90
2023-05-03T01:53:21.369Z,18.30
2023-05-03T01:56:08.951Z,21.00
2023-05-03T01:58:55.881Z,18.70
2023-05-03T02:01:43.217Z,17.90
2023-05-03T02:04:30.628Z,17.00
2023-05-03T02:07:17.418Z,17.60
2023-05-03T02:10:06.648Z,16.40
2023-05-03T02:12:53.376Z,17.60
2023-05-03T02:15:39.902Z,16.60
2023-05-03T02:18:31.458Z,17.20
2023-05-03T02:21:18.543Z,19.00
2023-05-03T02:24:05.761Z,18.50
2023-05-03T02:26:52.981Z,18.10
2023-05-03T02:29:39.749Z,17.00
2023-05-03T02:32:26.593Z,17.80
2023-05-03T02:35:13.857Z,18.00
2023-05-03T02:38:00.647Z,17.60
2023-05-03T02:40:47.558Z,22.90
2023-05-03T02:43:34.446Z,22.30
2023-05-03T02:46:21.773Z,19.60
2023-05-03T02:49:09.994Z,19.80
2023-05-03T02:51:56.916Z,20.40
2023-05-03T02:54:44.580Z,20.40
2023-05-03T02:57:31.989Z,20.40
2023-05-03T03:00:19.377Z,19.90
2023-05-03T03:03:06.573Z,20.50
2023-05-03T03:05:53.624Z,21.10
2023-05-03T03:08:41.024Z,21.90
2023-05-03T03:11:27.866Z,22.20
2023-05-03T03:14:14.791Z,20.90
2023-05-03T03:17:03.507Z,22.00
2023-05-03T03:19:51.429Z,22.30
2023-05-03T03:22:39.187Z,21.40
2023-05-03T03:25:26.276Z,22.40
2023-05-03T03:28:15.123Z,20.70
2023-05-03T03:31:01.743Z,19.90
2023-05-03T03:33:48.914Z,17.60
2023-05-03T03:36:38.148Z,18.40
2023-05-03T03:39:25.868Z,19.00
2023-05-03T03:42:15.292Z,18.70
2023-05-03T03:45:02.447Z,16.10
2023-05-03T03:47:51.410Z,17.30
2023-05-03T03:50:39.971Z,18.50
2023-05-03T03:53:27.258Z,18.10
2023-05-03T03:56:14.672Z,17.50
2023-05-03T03:59:02.421Z,16.80
2023-05-03T04:01:49.798Z,15.60
2023-05-03T04:04:37.216Z,17.30
2023-05-03T04:07:24.055Z,16.50
2023-05-03T04:10:10.929Z,15.40
2023-05-03T04:12:59.261Z,17.70
2023-05-03T04:15:47.990Z,16.50
2023-05-03T04:18:35.652Z,17.60
2023-05-03T04:21:22.886Z,18.20
2023-05-03T04:24:15.339Z,24.10
2023-05-03T04:29:51.816Z,19.80
2023-05-03T04:32:40.779Z,19.80
2023-05-03T04:35:31.056Z,19.20
2023-05-03T04:38:20.095Z,19.40
2023-05-03T04:41:07.224Z,20.70
2023-05-03T04:43:54.472Z,18.30
2023-05-03T04:46:42.075Z,17.80
2023-05-03T04:49:29.374Z,16.90
2023-05-03T04:52:17.495Z,17.60
2023-05-03T04:55:06.095Z,16.10
2023-05-03T04:57:53.530Z,17.90
2023-05-03T05:00:41.835Z,16.20
2023-05-03T05:03:33.591Z,17.20
2023-05-03T05:06:23.168Z,15.10
2023-05-03T05:09:20.968Z,12.60
2023-05-03T05:12:09.524Z,11.10
2023-05-03T05:14:59.455Z,13.20
2023-05-03T05:17:46.363Z,13.70
2023-05-03T05:20:33.368Z,11.20
2023-05-03T05:23:22.550Z,11.50
2023-05-03T05:26:09.673Z,11.10
2023-05-03T05:28:57.621Z,11.50
2023-05-03T05:31:44.484Z,10.80
2023-05-03T05:34:43.625Z,11.60
2023-05-03T05:37:33.339Z,11.40
2023-05-03T05:40:22.741Z,12.80
2023-05-03T05:43:13.266Z,12.20
2023-05-03T05:46:01.499Z,11.10
2023-05-03T05:48:51.395Z,10.60
2023-05-03T05:51:39.506Z,10.10
2023-05-03T05:54:28.071Z,11.30
2023-05-03T05:57:15.704Z,11.70
2023-05-03T06:00:06.204Z,10.50
2023-05-03T06:03:01.080Z,17.70
2023-05-03T06:05:49.509Z,24.10
2023-05-03T06:08:36.348Z,27.50
2023-05-03T06:11:23.352Z,23.70
2023-05-03T06:14:11.064Z,12.00
2023-05-03T06:17:01.303Z,16.90
2023-05-03T06:19:49.378Z,13.50
2023-05-03T06:22:36.286Z,10.00
2023-05-03T06:25:23.700Z,9.60
2023-05-03T06:28:10.887Z,9.60
2023-05-03T06:30:57.827Z,14.40
2023-05-03T06:33:45.247Z,10.10
2023-05-03T06:36:32.513Z,9.20
2023-05-03T06:39:19.324Z,9.30
2023-05-03T06:42:07.875Z,10.60
2023-05-03T06:44:58.316Z,7.20
2023-05-03T06:47:45.431Z,9.70
2023-05-03T06:50:32.227Z,7.20
2023-05-03T06:53:19.406Z,8.40
2023-05-03T06:56:06.884Z,6.20
2023-05-03T06:58:54.171Z,7.20
2023-05-03T07:01:40.885Z,10.80
2023-05-03T07:04:28.325Z,8.20
2023-05-03T07:07:16.125Z,6.40
2023-05-03T07:10:03.857Z,6.00
2023-05-03T07:12:51.425Z,5.80
2023-05-03T07:15:38.550Z,8.50
2023-05-03T07:18:25.353Z,4.20
2023-05-03T07:21:13.269Z,7.60
2023-05-03T07:24:00.111Z,3.70
2023-05-03T07:26:49.012Z,5.00
2023-05-03T07:29:36.060Z,4.20
2023-05-03T07:32:24.201Z,2.70
2023-05-03T07:35:11.146Z,5.20
2023-05-03T07:37:57.781Z,5.80
2023-05-03T07:40:44.719Z,4.30
2023-05-03T07:43:31.670Z,4.50
2023-05-03T07:46:18.782Z,4.00
2023-05-03T07:49:06.286Z,7.10
2023-05-03T07:51:53.652Z,6.40
2023-05-03T07:54:40.355Z,5.80
2023-05-03T07:57:27.192Z,4.90
2023-05-03T08:00:14.129Z,5.60
2023-05-03T08:03:04.245Z,8.70
2023-05-03T08:05:51.348Z,5.40
2023-05-03T08:08:38.642Z,5.20
2023-05-03T08:11:26.874Z,7.80
2023-05-03T08:14:13.811Z,9.50
2023-05-03T08:17:01.035Z,6.10
2023-05-03T08:19:48.865Z,5.30
2023-05-03T08:22:40.363Z,6.80
2023-05-03T08:25:28.558Z,6.70
2023-05-03T08:28:15.399Z,8.60
2023-05-03T08:31:05.084Z,10.90
2023-05-03T08:33:51.982Z,8.40
2023-05-03T08:36:38.886Z,6.90
2023-05-03T08:39:31.206Z,10.40
2023-05-03T08:42:18.012Z,8.20
2023-05-03T08:45:04.893Z,5.30
2023-05-03T08:47:55.753Z,10.60
2023-05-03T08:50:44.089Z,7.80
2023-05-03T08:53:30.976Z,7.50
2023-05-03T08:56:28.125Z,5.80
2023-05-03T08:59:17.489Z,8.00
2023-05-03T09:02:04.996Z,9.70
2023-05-03T09:04:51.852Z,6.50
2023-05-03T09:07:38.964Z,9.40
2023-05-03T09:10:25.706Z,9.20
2023-05-03T09:13:12.510Z,11.20
2023-05-03T09:15:59.438Z,11.30
2023-05-03T09:18:56.236Z,9.80
2023-05-03T09:21:44.643Z,12.70
2023-05-03T09:24:31.421Z,9.10
2023-05-03T09:27:19.791Z,6.00
2023-05-03T09:30:17.986Z,6.40
2023-05-03T09:33:05.030Z,7.10
2023-05-03T09:35:59.381Z,9.10
2023-05-03T09:38:46.117Z,8.70
2023-05-03T09:41:32.869Z,6.10
2023-05-03T09:44:19.901Z,6.50
2023-05-03T09:47:07.426Z,8.90
2023-05-03T09:49:54.922Z,10.60
2023-05-03T09:52:42.268Z,7.40
2023-05-03T09:55:31.933Z,8.70
2023-05-03T09:58:19.060Z,6.50
2023-05-03T10:01:07.845Z,6.50
2023-05-03T10:03:57.534Z,6.70
2023-05-03T10:06:45.789Z,8.80
2023-05-03T10:09:46.779Z,11.20
2023-05-03T10:12:36.445Z,9.40
2023-05-03T10:15:23.638Z,6.70
2023-05-03T10:18:14.584Z,6.30
2023-05-03T10:21:04.283Z,8.00
2023-05-03T10:24:10.253Z,10.90
2023-05-03T10:26:57.670Z,10.60
2023-05-03T10:29:50.586Z,7.70
2023-05-03T10:32:40.698Z,7.30
2023-05-03T10:35:28.285Z,10.50
2023-05-03T10:38:15.582Z,7.30
2023-05-03T10:41:04.069Z,9.40
2023-05-03T10:43:51.344Z,12.20
2023-05-03T10:46:39.246Z,9.20
2023-05-03T10:49:26.657Z,7.90
2023-05-03T10:52:45.781Z,12.20
2023-05-03T10:55:32.618Z,7.90
2023-05-03T10:58:19.718Z,8.80
2023-05-03T11:01:07.042Z,9.80
2023-05-03T11:04:08.547Z,10.90
2023-05-03T11:06:56.918Z,10.50
2023-05-03T11:09:44.891Z,8.60
2023-05-03T11:12:32.511Z,5.50
2023-05-03T11:15:19.617Z,8.40
2023-05-03T11:18:07.344Z,9.80
2023-05-03T11:20:54.739Z,6.40
2023-05-03T11:23:41.589Z,8.70
2023-05-03T11:26:29.396Z,6.90
2023-05-03T11:29:17.694Z,8.00
2023-05-03T11:32:04.877Z,10.00
2023-05-03T11:34:51.892Z,8.10
2023-05-03T11:37:38.596Z,11.00
2023-05-03T11:40:26.206Z,7.50
2023-05-03T11:43:15.197Z,8.00
2023-05-03T11:46:01.919Z,9.10
2023-05-03T11:48:49.344Z,9.60
2023-05-03T11:51:36.721Z,8.40
2023-05-03T11:54:27.032Z,8.50
2023-05-03T11:57:15.433Z,7.30
2023-05-03T12:00:17.876Z,7.20
2023-05-03T12:03:05.242Z,8.90
2023-05-03T12:05:56.229Z,8.10
2023-05-03T12:08:44.791Z,10.40
2023-05-03T12:11:40.491Z,6.30
2023-05-03T12:14:28.992Z,9.10
2023-05-03T12:17:33.130Z,8.20
2023-05-03T12:23:13.189Z,7.00
2023-05-03T12:26:04.885Z,7.20
2023-05-03T12:28:55.242Z,6.50
2023-05-03T12:31:44.932Z,9.90
2023-05-03T12:34:35.551Z,7.00
2023-05-03T12:37:25.879Z,7.80
2023-05-03T12:40:32.524Z,7.70
2023-05-03T12:46:32.320Z,8.20
2023-05-03T12:49:15.996Z,9.00
2023-05-03T12:55:02.801Z,9.60
2023-05-03T12:58:10.413Z,12.10
2023-05-03T13:04:03.253Z,10.80
2023-05-03T13:06:59.515Z,14.50
2023-05-03T13:12:55.043Z,6.60
2023-05-03T13:15:42.044Z,8.70
2023-05-03T13:18:29.028Z,8.40
2023-05-03T13:21:16.205Z,8.70
2023-05-03T13:24:03.052Z,9.20
2023-05-03T13:26:50.620Z,9.00
2023-05-03T13:29:41.016Z,7.20
2023-05-03T13:32:28.587Z,7.10
2023-05-03T13:35:16.150Z,9.30
2023-05-03T13:38:03.417Z,10.00
2023-05-03T13:40:50.042Z,7.00
2023-05-03T13:43:37.314Z,8.20
2023-05-03T13:46:23.985Z,5.10
2023-05-03T13:49:11.419Z,5.70
2023-05-03T13:51:58.878Z,7.90
2023-05-03T13:54:45.809Z,5.10
2023-05-03T13:57:32.558Z,5.30
2023-05-03T14:00:20.970Z,7.80
2023-05-03T14:03:08.098Z,4.50
2023-05-03T14:05:55.524Z,5.90
2023-05-03T14:08:42.149Z,10.10
2023-05-03T14:11:30.259Z,6.40
2023-05-03T14:14:17.074Z,5.10
2023-05-03T14:17:04.187Z,4.70
2023-05-03T14:19:50.875Z,5.30
2023-05-03T14:22:37.893Z,6.40
2023-05-03T14:25:26.245Z,9.20
2023-05-03T14:28:13.128Z,6.50
2023-05-03T14:31:00.277Z,6.00
2023-05-03T14:33:47.497Z,6.70
2023-05-03T14:36:36.438Z,4.70
2023-05-03T14:39:24.026Z,4.30
2023-05-03T14:42:11.215Z,7.00
2023-05-03T14:44:58.415Z,5.00
2023-05-03T14:47:47.766Z,5.30
2023-05-03T14:50:35.176Z,6.90
2023-05-03T14:53:22.735Z,4.40
2023-05-03T14:56:10.239Z,3.50
2023-05-03T14:58:57.120Z,8.30
2023-05-03T15:01:44.422Z,6.00
2023-05-03T15:04:31.213Z,10.00
2023-05-03T15:07:18.245Z,3.20
2023-05-03T15:10:05.947Z,5.40
2023-05-03T15:12:53.985Z,4.70
2023-05-03T15:15:43.400Z,4.90
2023-05-03T15:18:30.879Z,3.20
2023-05-03T15:21:19.191Z,5.30
2023-05-03T15:24:06.934Z,4.60
2023-05-03T15:26:53.659Z,3.10
2023-05-03T15:29:41.984Z,2.50
2023-05-03T15:32:28.928Z,3.20
2023-05-03T15:35:16.396Z,3.70
2023-05-03T15:38:03.578Z,2.90
2023-05-03T15:40:50.463Z,3.70
2023-05-03T15:43:37.728Z,3.60
2023-05-03T15:46:24.777Z,3.00
2023-05-03T15:49:12.584Z,3.70
2023-05-03T15:52:00.312Z,4.80
2023-05-03T15:54:47.394Z,3.60
2023-05-03T15:57:34.513Z,3.50
2023-05-03T16:00:22.974Z,3.40
2023-05-03T16:03:09.665Z,5.80
2023-05-03T16:05:56.808Z,3.60
2023-05-03T16:08:43.839Z,4.20
2023-05-03T16:11:31.182Z,4.10
2023-05-03T16:14:18.241Z,3.10
2023-05-03T16:17:05.178Z,3.10
2023-05-03T16:19:52.418Z,2.20
2023-05-03T16:22:39.673Z,2.80
2023-05-03T16:25:28.397Z,5.00
2023-05-03T16:28:16.066Z,2.80
2023-05-03T16:31:03.770Z,4.70
2023-05-03T16:33:50.292Z,2.60
2023-05-03T16:36:42.683Z,3.20
2023-05-03T16:39:31.185Z,4.50
2023-05-03T16:42:18.867Z,4.70
2023-05-03T16:45:10.545Z,5.90
2023-05-03T16:47:57.536Z,3.30
2023-05-03T16:50:44.179Z,3.30
2023-05-03T16:53:31.626Z,3.50
2023-05-03T16:56:18.747Z,3.70
2023-05-03T16:59:05.515Z,3.30
2023-05-03T17:01:52.737Z,2.60
2023-05-03T17:04:39.538Z,4.20
2023-05-03T17:07:26.856Z,7.70
2023-05-03T17:10:13.549Z,3.40
2023-05-03T17:13:01.122Z,3.60
2023-05-03T17:15:48.118Z,3.90
2023-05-03T17:18:35.100Z,4.20
2023-05-03T17:21:24.311Z,4.60
2023-05-03T17:24:11.836Z,5.20
2023-05-03T17:26:58.880Z,6.40
2023-05-03T17:29:45.537Z,5.20
2023-05-03T17:32:32.564Z,6.10
2023-05-03T17:35:19.419Z,10.50
2023-05-03T17:38:06.378Z,9.60
2023-05-03T17:40:53.248Z,9.80
2023-05-03T17:43:40.727Z,9.70
2023-05-03T17:46:28.186Z,8.90
2023-05-03T17:49:31.299Z,8.90
2023-05-03T17:52:19.780Z,6.50
2023-05-03T17:55:06.604Z,6.70
2023-05-03T17:57:53.720Z,3.80
2023-05-03T18:00:40.951Z,3.00
2023-05-03T18:03:28.361Z,3.90
2023-05-03T18:06:15.743Z,9.60
2023-05-03T18:09:02.679Z,3.20
2023-05-03T18:11:49.517Z,3.80
2023-05-03T18:14:36.944Z,3.40
2023-05-03T18:17:23.660Z,3.70
2023-05-03T18:20:10.533Z,8.10
2023-05-03T18:22:57.641Z,10.30
2023-05-03T18:25:46.143Z,4.90
2023-05-03T18:28:33.001Z,6.70
2023-05-03T18:31:19.816Z,6.10
2023-05-03T18:34:06.951Z,6.90
2023-05-03T18:36:54.433Z,9.90
2023-05-03T18:39:41.086Z,8.50
2023-05-03T18:42:27.742Z,8.40
2023-05-03T18:45:15.432Z,7.30
2023-05-03T18:48:02.343Z,6.20
2023-05-03T18:50:49.424Z,7.60
2023-05-03T18:53:36.730Z,5.60
2023-05-03T18:56:23.951Z,4.50
2023-05-03T18:59:10.803Z,5.20
2023-05-03T19:01:57.916Z,6.10
2023-05-03T19:04:45.584Z,6.30
2023-05-03T19:07:32.675Z,5.40
2023-05-03T19:10:20.048Z,11.00
2023-05-03T19:13:07.844Z,5.70
2023-05-03T19:15:55.289Z,11.00
2023-05-03T19:18:42.291Z,9.30
2023-05-03T19:21:29.503Z,9.90
2023-05-03T19:24:16.242Z,13.10
2023-05-03T19:27:05.645Z,14.80
2023-05-03T19:29:54.943Z,14.20
2023-05-03T19:32:41.652Z,15.60
2023-05-03T19:35:28.529Z,15.60
2023-05-03T19:38:15.191Z,14.30
2023-05-03T19:41:08.220Z,13.70
2023-05-03T19:43:55.749Z,17.70
2023-05-03T19:46:42.716Z,13.20
2023-05-03T19:49:30.504Z,11.00
2023-05-03T19:52:17.573Z,11.30
2023-05-03T19:55:07.430Z,10.00
2023-05-03T19:57:54.414Z,19.60
2023-05-03T20:00:41.472Z,12.60
2023-05-03T20:03:28.179Z,10.30
2023-05-03T20:06:15.751Z,17.00
2023-05-03T20:09:02.891Z,10.90
2023-05-03T20:11:50.178Z,12.80
2023-05-03T20:14:37.000Z,16.40
2023-05-03T20:17:24.072Z,15.50
2023-05-03T20:20:11.520Z,9.60
2023-05-03T20:22:58.197Z,12.50
2023-05-03T20:25:45.126Z,17.20
2023-05-03T20:28:35.074Z,17.80
2023-05-03T20:31:22.599Z,18.30
2023-05-03T20:34:09.582Z,12.90
2023-05-03T20:36:56.532Z,19.50
2023-05-03T20:39:43.212Z,20.00
2023-05-03T20:42:30.082Z,15.30
2023-05-03T20:45:16.866Z,25.90
2023-05-03T20:48:04.205Z,19.40
2023-05-03T20:50:52.059Z,22.70
2023-05-03T20:53:39.051Z,32.40
2023-05-03T20:56:26.596Z,35.00
2023-05-03T20:59:13.891Z,29.20
2023-05-03T21:02:00.831Z,27.50
2023-05-03T21:04:48.057Z,26.20
2023-05-03T21:07:35.269Z,14.60
2023-05-03T21:10:22.408Z,18.30
2023-05-03T21:13:09.170Z,26.00
2023-05-03T21:15:56.365Z,13.30
2023-05-03T21:18:43.025Z,26.00
2023-05-03T21:21:30.741Z,25.90
2023-05-03T21:24:17.767Z,17.20
2023-05-03T21:27:04.820Z,19.30
2023-05-03T21:29:51.491Z,21.70
2023-05-03T21:32:38.307Z,21.00
2023-05-03T21:35:24.926Z,21.30
2023-05-03T21:38:11.560Z,20.00
2023-05-03T21:41:02.159Z,24.40
2023-05-03T21:43:49.501Z,23.90
2023-05-03T21:46:36.523Z,20.70
2023-05-03T21:49:23.685Z,26.90
2023-05-03T21:52:10.368Z,21.50
2023-05-03T21:54:57.175Z,17.60
2023-05-03T21:57:43.786Z,16.60
2023-05-03T22:00:31.831Z,25.20
2023-05-03T22:03:19.431Z,21.90
2023-05-03T22:06:07.632Z,18.40
2023-05-03T22:08:54.474Z,17.60
2023-05-03T22:11:41.617Z,16.40
2023-05-03T22:14:28.656Z,19.40
2023-05-03T22:17:15.719Z,18.80
2023-05-03T22:20:03.106Z,27.00
2023-05-03T22:22:50.342Z,19.60
2023-05-03T22:25:36.986Z,18.00
2023-05-03T22:28:23.790Z,19.80
2023-05-03T22:31:11.127Z,22.50
2023-05-03T22:33:58.434Z,24.00
2023-05-03T22:36:45.140Z,15.30
2023-05-03T22:39:32.298Z,19.00
2023-05-03T22:42:19.142Z,22.20
2023-05-03T22:45:05.977Z,19.20
2023-05-03T22:47:52.861Z,19.60
2023-05-03T22:50:39.466Z,26.70
2023-05-03T22:53:26.630Z,18.70
2023-05-03T22:56:13.705Z,18.90
2023-05-03T22:59:00.524Z,18.50
2023-05-03T23:01:49.637Z,20.60
2023-05-03T23:04:37.442Z,19.60
2023-05-03T23:07:24.184Z,15.50
2023-05-03T23:10:11.280Z,16.40
2023-05-03T23:12:58.472Z,21.90
2023-05-03T23:15:45.515Z,18.10
2023-05-03T23:18:32.108Z,20.10
2023-05-03T23:21:18.977Z,24.50
2023-05-03T23:24:06.652Z,18.90
2023-05-03T23:26:53.399Z,17.40
2023-05-03T23:29:40.510Z,19.20
2023-05-03T23:32:27.933Z,25.70
2023-05-03T23:35:15.509Z,24.60
2023-05-03T23:38:02.775Z,24.80
2023-05-03T23:40:49.617Z,22.50
2023-05-03T23:43:36.487Z,18.40
2023-05-03T23:46:23.091Z,29.90
2023-05-03T23:49:10.086Z,23.30
2023-05-03T23:51:56.823Z,21.30
2023-05-03T23:54:43.739Z,18.80
2023-05-03T23:57:30.732Z,28.00
